sensor_id;sensor_type;location;lat;lon;timestamp;P1;durP1;ratioP1;P2;durP2;ratioP2
24102;SDS011;12278;53.058;9.028;2022-11-20T00:01:19;12.97;;;9.23;;
24102;SDS011;12278;53.058;9.028;2022-11-20T00:05:22;17.03;;;9.40;;
24102;SDS011;12278;53.058;9.028;2022-11-20T00:09:22;13.07;;;9.83;;
24102;SDS011;12278;53.058;9.028;2022-11-20T00:13:23;11.83;;;7.93;;
24102;SDS011;12278;53.058;9.028;2022-11-20T00:17:23;10.83;;;8.33;;
24102;SDS011;12278;53.058;9.028;2022-11-20T00:21:25;13.13;;;9.13;;
24102;SDS011;12278;53.058;9.028;2022-11-20T00:29:46;14.03;;;9.27;;
24102;SDS011;12278;53.058;9.028;2022-11-20T00:33:47;13.57;;;8.47;;
24102;SDS011;12278;53.058;9.028;2022-11-20T00:37:59;16.53;;;9.63;;
24102;SDS011;12278;53.058;9.028;2022-11-20T00:42:00;12.00;;;8.97;;
24102;SDS011;12278;53.058;9.028;2022-11-20T00:46:01;9.63;;;7.87;;
24102;SDS011;12278;53.058;9.028;2022-11-20T00:50:04;12.10;;;8.47;;
24102;SDS011;12278;53.058;9.028;2022-11-20T00:54:05;11.87;;;8.33;;
24102;SDS011;12278;53.058;9.028;2022-11-20T00:58:05;11.03;;;8.17;;
24102;SDS011;12278;53.058;9.028;2022-11-20T01:02:07;14.10;;;9.13;;
24102;SDS011;12278;53.058;9.028;2022-11-20T01:06:41;11.57;;;7.87;;
24102;SDS011;12278;53.058;9.028;2022-11-20T01:10:41;15.60;;;10.53;;
24102;SDS011;12278;53.058;9.028;2022-11-20T01:14:42;11.00;;;7.97;;
24102;SDS011;12278;53.058;9.028;2022-11-20T01:18:44;11.53;;;8.63;;
24102;SDS011;12278;53.058;9.028;2022-11-20T01:22:53;11.70;;;8.30;;
24102;SDS011;12278;53.058;9.028;2022-11-20T01:26:53;12.57;;;8.40;;
24102;SDS011;12278;53.058;9.028;2022-11-20T01:30:54;12.80;;;7.90;;
24102;SDS011;12278;53.058;9.028;2022-11-20T01:34:54;12.33;;;9.00;;
24102;SDS011;12278;53.058;9.028;2022-11-20T01:38:56;10.87;;;8.67;;
24102;SDS011;12278;53.058;9.028;2022-11-20T01:43:09;13.63;;;8.43;;
24102;SDS011;12278;53.058;9.028;2022-11-20T01:51:44;15.83;;;9.57;;
24102;SDS011;12278;53.058;9.028;2022-11-20T01:55:51;13.30;;;8.90;;
24102;SDS011;12278;53.058;9.028;2022-11-20T01:59:59;16.70;;;10.30;;
24102;SDS011;12278;53.058;9.028;2022-11-20T02:04:06;9.83;;;8.17;;
24102;SDS011;12278;53.058;9.028;2022-11-20T02:08:08;12.83;;;9.50;;
24102;SDS011;12278;53.058;9.028;2022-11-20T02:12:09;15.57;;;10.37;;
24102;SDS011;12278;53.058;9.028;2022-11-20T02:16:30;12.20;;;9.10;;
24102;SDS011;12278;53.058;9.028;2022-11-20T02:20:34;12.40;;;8.57;;
24102;SDS011;12278;53.058;9.028;2022-11-20T02:28:35;13.70;;;9.40;;
24102;SDS011;12278;53.058;9.028;2022-11-20T02:36:42;15.07;;;9.70;;
24102;SDS011;12278;53.058;9.028;2022-11-20T02:40:44;16.67;;;10.00;;
24102;SDS011;12278;53.058;9.028;2022-11-20T02:44:44;14.40;;;8.93;;
24102;SDS011;12278;53.058;9.028;2022-11-20T02:48:47;16.10;;;10.50;;
24102;SDS011;12278;53.058;9.028;2022-11-20T03:00:49;15.73;;;10.27;;
24102;SDS011;12278;53.058;9.028;2022-11-20T03:04:49;14.43;;;10.17;;
24102;SDS011;12278;53.058;9.028;2022-11-20T03:08:50;18.57;;;10.80;;
24102;SDS011;12278;53.058;9.028;2022-11-20T03:12:52;15.80;;;11.60;;
24102;SDS011;12278;53.058;9.028;2022-11-20T03:16:56;17.07;;;11.47;;
24102;SDS011;12278;53.058;9.028;2022-11-20T03:20:57;19.87;;;11.90;;
24102;SDS011;12278;53.058;9.028;2022-11-20T03:24:59;19.80;;;11.07;;
24102;SDS011;12278;53.058;9.028;2022-11-20T03:29:00;18.57;;;12.33;;
24102;SDS011;12278;53.058;9.028;2022-11-20T03:33:03;19.00;;;11.10;;
24102;SDS011;12278;53.058;9.028;2022-11-20T03:37:03;20.33;;;12.17;;
24102;SDS011;12278;53.058;9.028;2022-11-20T03:41:05;18.17;;;11.83;;
24102;SDS011;12278;53.058;9.028;2022-11-20T03:45:30;18.57;;;11.60;;
24102;SDS011;12278;53.058;9.028;2022-11-20T03:49:30;18.87;;;12.80;;
24102;SDS011;12278;53.058;9.028;2022-11-20T03:53:31;18.00;;;11.80;;
24102;SDS011;12278;53.058;9.028;2022-11-20T03:57:31;17.67;;;12.07;;
24102;SDS011;12278;53.058;9.028;2022-11-20T04:01:35;16.60;;;10.73;;
24102;SDS011;12278;53.058;9.028;2022-11-20T04:05:37;21.07;;;12.53;;
24102;SDS011;12278;53.058;9.028;2022-11-20T04:09:38;15.97;;;11.67;;
24102;SDS011;12278;53.058;9.028;2022-11-20T04:13:38;17.13;;;10.33;;
24102;SDS011;12278;53.058;9.028;2022-11-20T04:17:40;17.07;;;10.80;;
24102;SDS011;12278;53.058;9.028;2022-11-20T04:21:41;15.07;;;10.00;;
24102;SDS011;12278;53.058;9.028;2022-11-20T04:25:43;16.67;;;10.27;;
24102;SDS011;12278;53.058;9.028;2022-11-20T04:29:44;17.80;;;9.87;;
24102;SDS011;12278;53.058;9.028;2022-11-20T04:33:44;13.73;;;10.10;;
24102;SDS011;12278;53.058;9.028;2022-11-20T04:37:45;15.17;;;10.83;;
24102;SDS011;12278;53.058;9.028;2022-11-20T04:41:45;14.90;;;10.37;;
24102;SDS011;12278;53.058;9.028;2022-11-20T04:45:50;16.07;;;10.37;;
24102;SDS011;12278;53.058;9.028;2022-11-20T04:49:51;16.33;;;10.83;;
24102;SDS011;12278;53.058;9.028;2022-11-20T04:53:52;15.57;;;10.37;;
24102;SDS011;12278;53.058;9.028;2022-11-20T04:57:53;14.90;;;9.85;;
24102;SDS011;12278;53.058;9.028;2022-11-20T05:01:53;14.20;;;9.25;;
24102;SDS011;12278;53.058;9.028;2022-11-20T05:14:05;11.57;;;8.20;;
24102;SDS011;12278;53.058;9.028;2022-11-20T05:18:05;14.30;;;9.30;;
24102;SDS011;12278;53.058;9.028;2022-11-20T05:26:15;12.60;;;7.77;;
24102;SDS011;12278;53.058;9.028;2022-11-20T05:30:18;12.07;;;7.57;;
24102;SDS011;12278;53.058;9.028;2022-11-20T05:34:18;11.87;;;7.53;;
24102;SDS011;12278;53.058;9.028;2022-11-20T05:38:19;12.27;;;7.73;;
24102;SDS011;12278;53.058;9.028;2022-11-20T05:42:20;16.37;;;8.53;;
24102;SDS011;12278;53.058;9.028;2022-11-20T05:46:32;12.93;;;7.80;;
24102;SDS011;12278;53.058;9.028;2022-11-20T05:50:33;11.50;;;7.53;;
24102;SDS011;12278;53.058;9.028;2022-11-20T05:54:34;13.40;;;7.60;;
24102;SDS011;12278;53.058;9.028;2022-11-20T05:58:34;11.30;;;7.70;;
24102;SDS011;12278;53.058;9.028;2022-11-20T06:02:35;12.73;;;7.50;;
24102;SDS011;12278;53.058;9.028;2022-11-20T06:06:36;11.17;;;7.57;;
24102;SDS011;12278;53.058;9.028;2022-11-20T06:10:36;10.47;;;7.37;;
24102;SDS011;12278;53.058;9.028;2022-11-20T06:14:37;9.73;;;7.50;;
24102;SDS011;12278;53.058;9.028;2022-11-20T06:18:38;10.20;;;7.60;;
24102;SDS011;12278;53.058;9.028;2022-11-20T06:22:38;10.43;;;7.17;;
24102;SDS011;12278;53.058;9.028;2022-11-20T06:26:39;11.90;;;8.20;;
24102;SDS011;12278;53.058;9.028;2022-11-20T06:30:44;13.17;;;7.57;;
24102;SDS011;12278;53.058;9.028;2022-11-20T06:34:45;12.53;;;8.53;;
24102;SDS011;12278;53.058;9.028;2022-11-20T06:38:46;11.47;;;8.53;;
24102;SDS011;12278;53.058;9.028;2022-11-20T06:42:47;11.37;;;8.60;;
24102;SDS011;12278;53.058;9.028;2022-11-20T06:46:48;11.17;;;7.40;;
24102;SDS011;12278;53.058;9.028;2022-11-20T06:50:48;12.00;;;7.27;;
24102;SDS011;12278;53.058;9.028;2022-11-20T06:54:49;11.67;;;8.10;;
24102;SDS011;12278;53.058;9.028;2022-11-20T06:58:49;9.53;;;6.97;;
24102;SDS011;12278;53.058;9.028;2022-11-20T07:02:50;11.40;;;7.63;;
24102;SDS011;12278;53.058;9.028;2022-11-20T07:06:50;10.17;;;7.47;;
24102;SDS011;12278;53.058;9.028;2022-11-20T07:10:59;11.60;;;7.97;;
24102;SDS011;12278;53.058;9.028;2022-11-20T07:15:01;12.70;;;8.17;;
24102;SDS011;12278;53.058;9.028;2022-11-20T07:19:02;10.57;;;8.43;;
24102;SDS011;12278;53.058;9.028;2022-11-20T07:23:03;12.50;;;8.47;;
24102;SDS011;12278;53.058;9.028;2022-11-20T07:27:07;19.60;;;13.13;;
24102;SDS011;12278;53.058;9.028;2022-11-20T07:31:10;11.93;;;8.97;;
24102;SDS011;12278;53.058;9.028;2022-11-20T07:35:11;12.60;;;8.20;;
24102;SDS011;12278;53.058;9.028;2022-11-20T07:39:12;11.80;;;8.77;;
24102;SDS011;12278;53.058;9.028;2022-11-20T07:43:13;13.90;;;9.43;;
24102;SDS011;12278;53.058;9.028;2022-11-20T07:51:17;12.03;;;8.10;;
24102;SDS011;12278;53.058;9.028;2022-11-20T07:55:17;10.77;;;8.43;;
24102;SDS011;12278;53.058;9.028;2022-11-20T07:59:18;12.83;;;7.83;;
24102;SDS011;12278;53.058;9.028;2022-11-20T08:03:21;10.57;;;7.73;;
24102;SDS011;12278;53.058;9.028;2022-11-20T08:07:21;9.87;;;7.03;;
24102;SDS011;12278;53.058;9.028;2022-11-20T08:11:22;10.30;;;7.73;;
24102;SDS011;12278;53.058;9.028;2022-11-20T08:15:50;10.17;;;7.87;;
24102;SDS011;12278;53.058;9.028;2022-11-20T08:19:51;10.67;;;7.80;;
24102;SDS011;12278;53.058;9.028;2022-11-20T08:23:52;14.50;;;9.20;;
24102;SDS011;12278;53.058;9.028;2022-11-20T08:32:25;11.97;;;8.00;;
24102;SDS011;12278;53.058;9.028;2022-11-20T08:36:25;10.00;;;8.23;;
24102;SDS011;12278;53.058;9.028;2022-11-20T08:40:27;12.37;;;7.67;;
24102;SDS011;12278;53.058;9.028;2022-11-20T08:44:28;11.03;;;7.27;;
24102;SDS011;12278;53.058;9.028;2022-11-20T08:48:28;10.97;;;8.40;;
24102;SDS011;12278;53.058;9.028;2022-11-20T08:52:29;12.30;;;8.40;;
24102;SDS011;12278;53.058;9.028;2022-11-20T08:56:31;14.43;;;8.30;;
24102;SDS011;12278;53.058;9.028;2022-11-20T09:00:34;9.07;;;7.20;;
24102;SDS011;12278;53.058;9.028;2022-11-20T09:04:36;10.75;;;8.10;;
24102;SDS011;12278;53.058;9.028;2022-11-20T09:08:38;9.33;;;7.80;;
24102;SDS011;12278;53.058;9.028;2022-11-20T09:12:51;9.97;;;7.27;;
24102;SDS011;12278;53.058;9.028;2022-11-20T09:16:52;12.13;;;7.60;;
24102;SDS011;12278;53.058;9.028;2022-11-20T09:20:57;10.30;;;7.40;;
24102;SDS011;12278;53.058;9.028;2022-11-20T09:24:59;12.43;;;8.33;;
24102;SDS011;12278;53.058;9.028;2022-11-20T09:33:09;9.53;;;7.40;;
24102;SDS011;12278;53.058;9.028;2022-11-20T09:41:19;7.90;;;6.53;;
24102;SDS011;12278;53.058;9.028;2022-11-20T09:45:44;12.70;;;7.80;;
24102;SDS011;12278;53.058;9.028;2022-11-20T09:54:17;13.10;;;8.77;;
24102;SDS011;12278;53.058;9.028;2022-11-20T09:58:27;13.33;;;7.97;;
24102;SDS011;12278;53.058;9.028;2022-11-20T10:02:49;13.10;;;8.03;;
24102;SDS011;12278;53.058;9.028;2022-11-20T10:16:43;12.47;;;8.03;;
24102;SDS011;12278;53.058;9.028;2022-11-20T10:21:03;11.30;;;7.80;;
24102;SDS011;12278;53.058;9.028;2022-11-20T10:25:19;15.90;;;8.75;;
24102;SDS011;12278;53.058;9.028;2022-11-20T10:29:36;13.70;;;8.65;;
24102;SDS011;12278;53.058;9.028;2022-11-20T10:33:48;11.43;;;7.40;;
24102;SDS011;12278;53.058;9.028;2022-11-20T10:38:00;12.07;;;7.97;;
24102;SDS011;12278;53.058;9.028;2022-11-20T10:42:08;11.10;;;7.90;;
24102;SDS011;12278;53.058;9.028;2022-11-20T10:46:15;10.87;;;7.83;;
24102;SDS011;12278;53.058;9.028;2022-11-20T10:50:19;12.00;;;8.93;;
24102;SDS011;12278;53.058;9.028;2022-11-20T11:03:28;13.13;;;8.77;;
24102;SDS011;12278;53.058;9.028;2022-11-20T11:07:33;12.83;;;8.87;;
24102;SDS011;12278;53.058;9.028;2022-11-20T11:11:37;13.57;;;9.20;;
24102;SDS011;12278;53.058;9.028;2022-11-20T11:15:39;12.23;;;9.40;;
24102;SDS011;12278;53.058;9.028;2022-11-20T11:19:40;15.23;;;9.20;;
24102;SDS011;12278;53.058;9.028;2022-11-20T11:23:42;11.73;;;8.77;;
24102;SDS011;12278;53.058;9.028;2022-11-20T11:28:38;13.00;;;9.83;;
24102;SDS011;12278;53.058;9.028;2022-11-20T11:32:21;14.13;;;10.53;;
24102;SDS011;12278;53.058;9.028;2022-11-20T11:36:22;14.13;;;9.50;;
24102;SDS011;12278;53.058;9.028;2022-11-20T11:40:26;12.90;;;9.57;;
24102;SDS011;12278;53.058;9.028;2022-11-20T11:44:30;13.40;;;10.27;;
24102;SDS011;12278;53.058;9.028;2022-11-20T11:48:58;14.43;;;10.37;;
24102;SDS011;12278;53.058;9.028;2022-11-20T11:53:16;14.23;;;9.47;;
24102;SDS011;12278;53.058;9.028;2022-11-20T12:05:58;14.93;;;10.67;;
24102;SDS011;12278;53.058;9.028;2022-11-20T12:10:03;15.63;;;10.60;;
24102;SDS011;12278;53.058;9.028;2022-11-20T12:14:13;13.90;;;10.33;;
24102;SDS011;12278;53.058;9.028;2022-11-20T12:18:27;11.63;;;9.90;;
24102;SDS011;12278;53.058;9.028;2022-11-20T12:22:41;11.47;;;9.53;;
24102;SDS011;12278;53.058;9.028;2022-11-20T12:26:57;12.27;;;9.37;;
24102;SDS011;12278;53.058;9.028;2022-11-20T12:31:35;27.17;;;14.40;;
24102;SDS011;12278;53.058;9.028;2022-11-20T12:58:16;11.83;;;9.47;;
24102;SDS011;12278;53.058;9.028;2022-11-20T13:07:11;12.77;;;10.10;;
24102;SDS011;12278;53.058;9.028;2022-11-20T13:11:17;12.83;;;10.20;;
24102;SDS011;12278;53.058;9.028;2022-11-20T13:19:56;11.53;;;9.10;;
24102;SDS011;12278;53.058;9.028;2022-11-20T13:28:30;9.80;;;7.03;;
24102;SDS011;12278;53.058;9.028;2022-11-20T13:32:32;10.43;;;7.63;;
24102;SDS011;12278;53.058;9.028;2022-11-20T13:36:32;9.77;;;7.17;;
24102;SDS011;12278;53.058;9.028;2022-11-20T13:40:39;8.80;;;6.83;;
24102;SDS011;12278;53.058;9.028;2022-11-20T13:45:02;7.83;;;6.17;;
24102;SDS011;12278;53.058;9.028;2022-11-20T13:49:33;8.67;;;6.63;;
24102;SDS011;12278;53.058;9.028;2022-11-20T14:02:36;9.50;;;5.90;;
24102;SDS011;12278;53.058;9.028;2022-11-20T14:06:44;7.00;;;5.13;;
24102;SDS011;12278;53.058;9.028;2022-11-20T14:10:47;7.20;;;6.10;;
24102;SDS011;12278;53.058;9.028;2022-11-20T14:14:51;9.97;;;6.40;;
24102;SDS011;12278;53.058;9.028;2022-11-20T14:18:54;8.23;;;6.90;;
24102;SDS011;12278;53.058;9.028;2022-11-20T14:22:56;10.43;;;7.00;;
24102;SDS011;12278;53.058;9.028;2022-11-20T14:26:57;11.23;;;6.93;;
24102;SDS011;12278;53.058;9.028;2022-11-20T14:30:58;10.47;;;6.63;;
24102;SDS011;12278;53.058;9.028;2022-11-20T14:35:01;9.90;;;6.90;;
24102;SDS011;12278;53.058;9.028;2022-11-20T14:39:09;9.70;;;7.30;;
24102;SDS011;12278;53.058;9.028;2022-11-20T14:43:25;9.90;;;7.80;;
24102;SDS011;12278;53.058;9.028;2022-11-20T14:47:28;11.10;;;7.43;;
24102;SDS011;12278;53.058;9.028;2022-11-20T14:51:35;12.57;;;7.70;;
24102;SDS011;12278;53.058;9.028;2022-11-20T14:55:41;10.60;;;7.40;;
24102;SDS011;12278;53.058;9.028;2022-11-20T14:59:42;8.43;;;6.63;;
24102;SDS011;12278;53.058;9.028;2022-11-20T15:03:45;12.93;;;8.97;;
24102;SDS011;12278;53.058;9.028;2022-11-20T15:15:58;12.53;;;8.23;;
24102;SDS011;12278;53.058;9.028;2022-11-20T15:20:01;11.97;;;8.43;;
24102;SDS011;12278;53.058;9.028;2022-11-20T15:24:08;13.07;;;8.87;;
24102;SDS011;12278;53.058;9.028;2022-11-20T15:28:19;9.73;;;7.03;;
24102;SDS011;12278;53.058;9.028;2022-11-20T15:36:46;11.63;;;7.47;;
24102;SDS011;12278;53.058;9.028;2022-11-20T15:40:46;10.37;;;6.57;;
24102;SDS011;12278;53.058;9.028;2022-11-20T15:44:55;10.23;;;7.27;;
24102;SDS011;12278;53.058;9.028;2022-11-20T15:48:56;11.07;;;6.83;;
24102;SDS011;12278;53.058;9.028;2022-11-20T15:53:00;10.53;;;7.93;;
24102;SDS011;12278;53.058;9.028;2022-11-20T15:57:02;14.30;;;8.53;;
24102;SDS011;12278;53.058;9.028;2022-11-20T16:01:03;14.17;;;9.50;;
24102;SDS011;12278;53.058;9.028;2022-11-20T16:05:09;10.40;;;8.23;;
24102;SDS011;12278;53.058;9.028;2022-11-20T16:09:11;10.30;;;7.50;;
24102;SDS011;12278;53.058;9.028;2022-11-20T16:13:13;12.97;;;9.07;;
24102;SDS011;12278;53.058;9.028;2022-11-20T16:17:34;10.20;;;7.70;;
24102;SDS011;12278;53.058;9.028;2022-11-20T16:21:43;15.27;;;9.23;;
24102;SDS011;12278;53.058;9.028;2022-11-20T16:25:45;10.50;;;8.43;;
24102;SDS011;12278;53.058;9.028;2022-11-20T16:29:52;10.87;;;7.93;;
24102;SDS011;12278;53.058;9.028;2022-11-20T16:33:54;13.17;;;8.67;;
24102;SDS011;12278;53.058;9.028;2022-11-20T16:37:56;13.60;;;10.03;;
24102;SDS011;12278;53.058;9.028;2022-11-20T16:41:58;11.53;;;8.57;;
24102;SDS011;12278;53.058;9.028;2022-11-20T16:46:03;11.37;;;8.07;;
24102;SDS011;12278;53.058;9.028;2022-11-20T16:50:04;13.30;;;8.37;;
24102;SDS011;12278;53.058;9.028;2022-11-20T16:54:06;12.00;;;9.37;;
24102;SDS011;12278;53.058;9.028;2022-11-20T16:58:07;15.37;;;10.03;;
24102;SDS011;12278;53.058;9.028;2022-11-20T17:02:09;12.80;;;9.50;;
24102;SDS011;12278;53.058;9.028;2022-11-20T17:06:13;11.60;;;8.70;;
24102;SDS011;12278;53.058;9.028;2022-11-20T17:10:15;12.50;;;8.67;;
24102;SDS011;12278;53.058;9.028;2022-11-20T17:14:16;11.03;;;8.47;;
24102;SDS011;12278;53.058;9.028;2022-11-20T17:18:16;12.33;;;8.67;;
24102;SDS011;12278;53.058;9.028;2022-11-20T17:22:17;14.87;;;9.23;;
24102;SDS011;12278;53.058;9.028;2022-11-20T17:26:19;13.70;;;8.83;;
24102;SDS011;12278;53.058;9.028;2022-11-20T17:30:21;10.97;;;8.30;;
24102;SDS011;12278;53.058;9.028;2022-11-20T17:34:21;13.70;;;10.60;;
24102;SDS011;12278;53.058;9.028;2022-11-20T17:38:22;15.93;;;12.73;;
24102;SDS011;12278;53.058;9.028;2022-11-20T17:42:23;16.73;;;12.03;;
24102;SDS011;12278;53.058;9.028;2022-11-20T17:46:29;13.17;;;9.43;;
24102;SDS011;12278;53.058;9.028;2022-11-20T17:50:34;14.97;;;11.07;;
24102;SDS011;12278;53.058;9.028;2022-11-20T17:54:37;17.60;;;12.33;;
24102;SDS011;12278;53.058;9.028;2022-11-20T17:58:42;13.07;;;10.07;;
24102;SDS011;12278;53.058;9.028;2022-11-20T18:06:49;12.80;;;8.17;;
24102;SDS011;12278;53.058;9.028;2022-11-20T18:10:49;13.17;;;8.77;;
24102;SDS011;12278;53.058;9.028;2022-11-20T18:14:50;13.23;;;8.70;;
24102;SDS011;12278;53.058;9.028;2022-11-20T18:18:54;13.10;;;9.73;;
24102;SDS011;12278;53.058;9.028;2022-11-20T18:22:56;14.53;;;10.33;;
24102;SDS011;12278;53.058;9.028;2022-11-20T18:26:57;14.67;;;9.67;;
24102;SDS011;12278;53.058;9.028;2022-11-20T18:30:57;15.97;;;9.97;;
24102;SDS011;12278;53.058;9.028;2022-11-20T18:35:03;22.23;;;12.73;;
24102;SDS011;12278;53.058;9.028;2022-11-20T18:39:05;18.90;;;11.83;;
24102;SDS011;12278;53.058;9.028;2022-11-20T18:43:09;23.83;;;14.23;;
24102;SDS011;12278;53.058;9.028;2022-11-20T18:51:50;15.70;;;10.20;;
24102;SDS011;12278;53.058;9.028;2022-11-20T18:55:51;10.60;;;8.80;;
24102;SDS011;12278;53.058;9.028;2022-11-20T18:59:52;16.50;;;10.33;;
24102;SDS011;12278;53.058;9.028;2022-11-20T19:03:53;14.47;;;10.77;;
24102;SDS011;12278;53.058;9.028;2022-11-20T19:07:54;15.07;;;10.33;;
24102;SDS011;12278;53.058;9.028;2022-11-20T19:11:58;14.23;;;9.93;;
24102;SDS011;12278;53.058;9.028;2022-11-20T19:16:08;13.70;;;10.20;;
24102;SDS011;12278;53.058;9.028;2022-11-20T19:20:14;14.67;;;10.23;;
24102;SDS011;12278;53.058;9.028;2022-11-20T19:24:14;12.17;;;9.40;;
24102;SDS011;12278;53.058;9.028;2022-11-20T19:28:16;13.83;;;10.07;;
24102;SDS011;12278;53.058;9.028;2022-11-20T19:32:17;17.50;;;10.57;;
24102;SDS011;12278;53.058;9.028;2022-11-20T19:36:19;16.10;;;10.87;;
24102;SDS011;12278;53.058;9.028;2022-11-20T19:40:25;13.23;;;10.43;;
24102;SDS011;12278;53.058;9.028;2022-11-20T19:44:26;16.57;;;10.83;;
24102;SDS011;12278;53.058;9.028;2022-11-20T19:48:44;15.40;;;11.43;;
24102;SDS011;12278;53.058;9.028;2022-11-20T19:52:45;14.20;;;9.93;;
24102;SDS011;12278;53.058;9.028;2022-11-20T19:56:46;13.67;;;9.93;;
24102;SDS011;12278;53.058;9.028;2022-11-20T20:00:48;12.50;;;9.37;;
24102;SDS011;12278;53.058;9.028;2022-11-20T20:04:49;14.27;;;10.33;;
24102;SDS011;12278;53.058;9.028;2022-11-20T20:08:53;15.73;;;10.80;;
24102;SDS011;12278;53.058;9.028;2022-11-20T20:17:15;14.77;;;10.80;;
24102;SDS011;12278;53.058;9.028;2022-11-20T20:21:16;12.00;;;9.20;;
24102;SDS011;12278;53.058;9.028;2022-11-20T20:25:17;14.93;;;10.80;;
24102;SDS011;12278;53.058;9.028;2022-11-20T20:29:18;16.70;;;9.30;;
24102;SDS011;12278;53.058;9.028;2022-11-20T20:33:22;15.13;;;11.20;;
24102;SDS011;12278;53.058;9.028;2022-11-20T20:37:23;17.30;;;10.60;;
24102;SDS011;12278;53.058;9.028;2022-11-20T20:41:28;16.50;;;11.40;;
24102;SDS011;12278;53.058;9.028;2022-11-20T20:45:29;14.70;;;11.00;;
24102;SDS011;12278;53.058;9.028;2022-11-20T20:49:31;14.80;;;10.40;;
24102;SDS011;12278;53.058;9.028;2022-11-20T20:53:38;12.20;;;9.27;;
24102;SDS011;12278;53.058;9.028;2022-11-20T20:57:39;12.87;;;8.90;;
24102;SDS011;12278;53.058;9.028;2022-11-20T21:01:40;17.20;;;12.50;;
24102;SDS011;12278;53.058;9.028;2022-11-20T21:05:41;14.87;;;10.43;;
24102;SDS011;12278;53.058;9.028;2022-11-20T21:09:41;12.20;;;10.17;;
24102;SDS011;12278;53.058;9.028;2022-11-20T21:13:43;14.53;;;10.87;;
24102;SDS011;12278;53.058;9.028;2022-11-20T21:17:44;15.60;;;10.53;;
24102;SDS011;12278;53.058;9.028;2022-11-20T21:21:46;16.73;;;10.40;;
24102;SDS011;12278;53.058;9.028;2022-11-20T21:25:59;15.87;;;10.80;;
24102;SDS011;12278;53.058;9.028;2022-11-20T21:30:01;13.47;;;10.10;;
24102;SDS011;12278;53.058;9.028;2022-11-20T21:34:10;15.93;;;11.27;;
24102;SDS011;12278;53.058;9.028;2022-11-20T21:38:13;14.60;;;10.63;;
24102;SDS011;12278;53.058;9.028;2022-11-20T21:42:15;16.67;;;11.13;;
24102;SDS011;12278;53.058;9.028;2022-11-20T21:46:17;14.67;;;10.17;;
24102;SDS011;12278;53.058;9.028;2022-11-20T21:50:18;13.90;;;10.33;;
24102;SDS011;12278;53.058;9.028;2022-11-20T21:54:18;15.03;;;9.80;;
24102;SDS011;12278;53.058;9.028;2022-11-20T21:58:19;14.07;;;10.57;;
24102;SDS011;12278;53.058;9.028;2022-11-20T22:02:20;14.00;;;9.87;;
24102;SDS011;12278;53.058;9.028;2022-11-20T22:06:20;18.10;;;12.00;;
24102;SDS011;12278;53.058;9.028;2022-11-20T22:10:27;13.70;;;10.30;;
24102;SDS011;12278;53.058;9.028;2022-11-20T22:14:28;15.63;;;10.50;;
24102;SDS011;12278;53.058;9.028;2022-11-20T22:18:29;13.33;;;10.70;;
24102;SDS011;12278;53.058;9.028;2022-11-20T22:22:29;13.70;;;10.87;;
24102;SDS011;12278;53.058;9.028;2022-11-20T22:26:31;15.37;;;10.50;;
24102;SDS011;12278;53.058;9.028;2022-11-20T22:30:34;15.27;;;10.17;;
24102;SDS011;12278;53.058;9.028;2022-11-20T22:34:35;18.10;;;11.47;;
24102;SDS011;12278;53.058;9.028;2022-11-20T22:38:37;16.17;;;11.90;;
24102;SDS011;12278;53.058;9.028;2022-11-20T22:42:38;17.00;;;10.83;;
24102;SDS011;12278;53.058;9.028;2022-11-20T22:46:39;17.80;;;11.00;;
24102;SDS011;12278;53.058;9.028;2022-11-20T22:50:42;16.57;;;11.20;;
24102;SDS011;12278;53.058;9.028;2022-11-20T22:54:43;15.67;;;10.70;;
24102;SDS011;12278;53.058;9.028;2022-11-20T22:58:44;14.65;;;10.05;;
24102;SDS011;12278;53.058;9.028;2022-11-20T23:02:47;14.10;;;10.37;;
24102;SDS011;12278;53.058;9.028;2022-11-20T23:06:48;14.50;;;10.53;;
24102;SDS011;12278;53.058;9.028;2022-11-20T23:10:49;16.70;;;11.17;;
24102;SDS011;12278;53.058;9.028;2022-11-20T23:14:49;13.53;;;9.83;;
24102;SDS011;12278;53.058;9.028;2022-11-20T23:18:53;17.90;;;10.90;;
24102;SDS011;12278;53.058;9.028;2022-11-20T23:22:55;18.33;;;11.87;;
24102;SDS011;12278;53.058;9.028;2022-11-20T23:26:56;14.63;;;9.87;;
24102;SDS011;12278;53.058;9.028;2022-11-20T23:30:56;12.70;;;10.17;;
24102;SDS011;12278;53.058;9.028;2022-11-20T23:34:58;14.00;;;9.93;;
24102;SDS011;12278;53.058;9.028;2022-11-20T23:38:58;18.23;;;10.70;;
24102;SDS011;12278;53.058;9.028;2022-11-20T23:42:59;12.53;;;9.77;;
24102;SDS011;12278;53.058;9.028;2022-11-20T23:47:15;12.77;;;9.23;;
24102;SDS011;12278;53.058;9.028;2022-11-20T23:51:15;14.67;;;9.60;;
24102;SDS011;12278;53.058;9.028;2022-11-20T23:55:17;12.93;;;10.07;;
24102;SDS011;12278;53.058;9.028;2022-11-20T23:59:17;15.57;;;10.03;;
